sensor_id;sensor_type;location;lat;lon;timestamp;pressure;altitude;pressure_sealevel;temperature;humidity
12073;BME280;6098;49.004;8.372;2023-07-24T00:12:37;99519.76;;;22.09;75.92
12073;BME280;6098;49.004;8.372;2023-07-24T00:27:30;99518.09;;;22.12;75.65
12073;BME280;6098;49.004;8.372;2023-07-24T00:42:23;99503.45;;;22.05;75.99
12073;BME280;6098;49.004;8.372;2023-07-24T00:57:15;99486.24;;;21.98;74.31
12073;BME280;6098;49.004;8.372;2023-07-24T01:12:32;99455.39;;;21.91;74.12
12073;BME280;6098;49.004;8.372;2023-07-24T01:27:29;99467.35;;;21.79;74.16
12073;BME280;6098;49.004;8.372;2023-07-24T01:42:21;99475.00;;;21.75;77.32
12073;BME280;6098;49.004;8.372;2023-07-24T01:57:14;99465.89;;;21.67;76.14
12073;BME280;6098;49.004;8.372;2023-07-24T02:12:06;99437.20;;;21.57;72.81
12073;BME280;6098;49.004;8.372;2023-07-24T02:27:01;99422.27;;;21.49;73.05
12073;BME280;6098;49.004;8.372;2023-07-24T02:41:53;99424.19;;;21.39;74.22
12073;BME280;6098;49.004;8.372;2023-07-24T02:56:45;99404.89;;;21.25;74.65
12073;BME280;6098;49.004;8.372;2023-07-24T03:11:37;99384.08;;;21.18;75.41
12073;BME280;6098;49.004;8.372;2023-07-24T03:26:30;99363.00;;;21.22;75.28
12073;BME280;6098;49.004;8.372;2023-07-24T03:41:24;99395.23;;;21.19;78.07
12073;BME280;6098;49.004;8.372;2023-07-24T03:56:15;99393.23;;;21.16;80.73
12073;BME280;6098;49.004;8.372;2023-07-24T04:11:08;99366.07;;;21.18;83.02
12073;BME280;6098;49.004;8.372;2023-07-24T04:26:01;99347.20;;;21.18;81.78
12073;BME280;6098;49.004;8.372;2023-07-24T04:40:54;99340.42;;;21.23;81.79
12073;BME280;6098;49.004;8.372;2023-07-24T04:55:47;99335.39;;;21.24;82.76
12073;BME280;6098;49.004;8.372;2023-07-24T05:10:39;99358.25;;;21.20;81.87
12073;BME280;6098;49.004;8.372;2023-07-24T05:25:32;99372.97;;;21.12;79.78
12073;BME280;6098;49.004;8.372;2023-07-24T05:40:24;99395.27;;;21.09;79.78
12073;BME280;6098;49.004;8.372;2023-07-24T05:55:17;99408.81;;;21.09;79.88
12073;BME280;6098;49.004;8.372;2023-07-24T06:10:13;99406.78;;;21.15;78.99
12073;BME280;6098;49.004;8.372;2023-07-24T06:25:05;99407.09;;;21.26;77.61
12073;BME280;6098;49.004;8.372;2023-07-24T06:39:58;99408.35;;;21.49;75.92
12073;BME280;6098;49.004;8.372;2023-07-24T06:54:50;99389.73;;;21.64;72.73
12073;BME280;6098;49.004;8.372;2023-07-24T07:09:43;99397.42;;;21.73;73.99
12073;BME280;6098;49.004;8.372;2023-07-24T07:24:36;99402.39;;;21.64;75.91
12073;BME280;6098;49.004;8.372;2023-07-24T07:39:29;99457.04;;;21.52;77.39
12073;BME280;6098;49.004;8.372;2023-07-24T07:54:20;99439.25;;;21.32;86.36
12073;BME280;6098;49.004;8.372;2023-07-24T08:09:13;99422.42;;;21.34;87.55
12073;BME280;6098;49.004;8.372;2023-07-24T08:24:10;99392.09;;;21.55;86.02
12073;BME280;6098;49.004;8.372;2023-07-24T08:39:02;99384.27;;;21.74;86.75
12073;BME280;6098;49.004;8.372;2023-07-24T08:53:58;99386.16;;;22.21;86.21
12073;BME280;6098;49.004;8.372;2023-07-24T09:08:53;99384.54;;;22.76;84.04
12073;BME280;6098;49.004;8.372;2023-07-24T09:23:45;99410.57;;;23.14;83.93
12073;BME280;6098;49.004;8.372;2023-07-24T09:38:38;99392.68;;;23.30;79.58
12073;BME280;6098;49.004;8.372;2023-07-24T10:08:27;99383.59;;;22.89;82.52
12073;BME280;6098;49.004;8.372;2023-07-24T10:23:18;99381.64;;;22.73;86.21
12073;BME280;6098;49.004;8.372;2023-07-24T10:38:12;99374.94;;;22.56;88.05
12073;BME280;6098;49.004;8.372;2023-07-24T10:53:02;99366.05;;;22.42;85.31
12073;BME280;6098;49.004;8.372;2023-07-24T11:08:08;99306.08;;;22.43;85.58
12073;BME280;6098;49.004;8.372;2023-07-24T11:22:57;99301.99;;;22.64;83.59
12073;BME280;6098;49.004;8.372;2023-07-24T11:37:52;99338.94;;;23.10;79.29
12073;BME280;6098;49.004;8.372;2023-07-24T11:52:45;99359.02;;;23.58;76.75
12073;BME280;6098;49.004;8.372;2023-07-24T12:07:41;99346.86;;;23.54;73.41
12073;BME280;6098;49.004;8.372;2023-07-24T12:37:55;99292.25;;;24.50;65.24
12073;BME280;6098;49.004;8.372;2023-07-24T12:52:51;99273.40;;;24.96;60.34
12073;BME280;6098;49.004;8.372;2023-07-24T13:07:44;99248.11;;;25.03;60.03
12073;BME280;6098;49.004;8.372;2023-07-24T13:22:39;99239.72;;;25.44;56.93
12073;BME280;6098;49.004;8.372;2023-07-24T13:37:32;99188.39;;;26.01;54.46
12073;BME280;6098;49.004;8.372;2023-07-24T13:52:26;99182.39;;;26.32;53.11
12073;BME280;6098;49.004;8.372;2023-07-24T14:07:19;99149.75;;;26.86;52.11
12073;BME280;6098;49.004;8.372;2023-07-24T14:22:14;99162.10;;;27.35;51.65
12073;BME280;6098;49.004;8.372;2023-07-24T14:37:08;99161.94;;;26.68;53.61
12073;BME280;6098;49.004;8.372;2023-07-24T14:52:04;99156.80;;;25.71;58.53
12073;BME280;6098;49.004;8.372;2023-07-24T15:07:08;99199.34;;;24.95;64.59
12073;BME280;6098;49.004;8.372;2023-07-24T15:22:01;99251.92;;;24.08;77.48
12073;BME280;6098;49.004;8.372;2023-07-24T15:36:53;99244.13;;;24.37;77.53
12073;BME280;6098;49.004;8.372;2023-07-24T15:51:49;99253.30;;;25.28;71.71
12073;BME280;6098;49.004;8.372;2023-07-24T16:06:50;99252.80;;;24.83;74.85
12073;BME280;6098;49.004;8.372;2023-07-24T16:21:46;99245.67;;;25.13;73.34
12073;BME280;6098;49.004;8.372;2023-07-24T16:36:36;99244.60;;;24.25;75.91
12073;BME280;6098;49.004;8.372;2023-07-24T16:51:28;99250.39;;;24.10;77.92
12073;BME280;6098;49.004;8.372;2023-07-24T17:06:21;99259.59;;;23.88;77.14
12073;BME280;6098;49.004;8.372;2023-07-24T17:21:12;99260.69;;;23.86;74.59
12073;BME280;6098;49.004;8.372;2023-07-24T17:36:05;99284.31;;;24.05;75.15
12073;BME280;6098;49.004;8.372;2023-07-24T17:51:01;99280.88;;;24.31;65.24
12073;BME280;6098;49.004;8.372;2023-07-24T18:06:00;99287.80;;;24.65;61.53
12073;BME280;6098;49.004;8.372;2023-07-24T18:21:02;99294.78;;;24.00;63.33
12073;BME280;6098;49.004;8.372;2023-07-24T18:35:59;99311.86;;;23.80;62.87
12073;BME280;6098;49.004;8.372;2023-07-24T18:50:51;99317.34;;;23.63;62.46
12073;BME280;6098;49.004;8.372;2023-07-24T19:05:42;99332.95;;;23.45;63.41
12073;BME280;6098;49.004;8.372;2023-07-24T19:20:43;99349.72;;;23.27;63.87
12073;BME280;6098;49.004;8.372;2023-07-24T19:35:44;99352.27;;;23.08;64.86
12073;BME280;6098;49.004;8.372;2023-07-24T19:50:50;99349.30;;;22.85;66.46
12073;BME280;6098;49.004;8.372;2023-07-24T20:05:59;99352.60;;;22.58;69.73
12073;BME280;6098;49.004;8.372;2023-07-24T20:36:07;99347.17;;;21.98;76.40
12073;BME280;6098;49.004;8.372;2023-07-24T20:51:02;99356.91;;;21.83;74.19
12073;BME280;6098;49.004;8.372;2023-07-24T21:05:57;99347.27;;;21.80;73.05
12073;BME280;6098;49.004;8.372;2023-07-24T21:20:50;99377.30;;;21.67;73.66
12073;BME280;6098;49.004;8.372;2023-07-24T21:35:42;99378.47;;;21.51;73.91
12073;BME280;6098;49.004;8.372;2023-07-24T21:50:37;99371.94;;;21.45;73.73
12073;BME280;6098;49.004;8.372;2023-07-24T22:05:29;99366.88;;;21.37;74.62
12073;BME280;6098;49.004;8.372;2023-07-24T22:20:22;99369.53;;;21.28;75.27
12073;BME280;6098;49.004;8.372;2023-07-24T22:35:15;99366.88;;;21.24;74.44
12073;BME280;6098;49.004;8.372;2023-07-24T22:50:09;99365.33;;;21.21;74.44
12073;BME280;6098;49.004;8.372;2023-07-24T23:05:03;99354.43;;;21.18;73.13
12073;BME280;6098;49.004;8.372;2023-07-24T23:19:55;99363.59;;;21.16;72.87
12073;BME280;6098;49.004;8.372;2023-07-24T23:50:09;99315.45;;;21.12;74.25
